sensor_id;sensor_type;location;lat;lon;timestamp;temperature;humidity
5476;DHT22;2760;50.000;9.194;2022-10-31T00:00:31;11.10;99.90
5476;DHT22;2760;50.000;9.194;2022-10-31T00:02:59;11.00;99.90
5476;DHT22;2760;50.000;9.194;2022-10-31T00:05:26;11.00;99.90
5476;DHT22;2760;50.000;9.194;2022-10-31T00:07:54;12.50;99.90
5476;DHT22;2760;50.000;9.194;2022-10-31T00:10:23;11.00;99.90
5476;DHT22;2760;50.000;9.194;2022-10-31T00:12:51;11.00;99.90
5476;DHT22;2760;50.000;9.194;2022-10-31T00:15:18;11.30;99.90
5476;DHT22;2760;50.000;9.194;2022-10-31T00:17:46;12.80;99.90
5476;DHT22;2760;50.000;9.194;2022-10-31T00:20:14;11.20;99.90
5476;DHT22;2760;50.000;9.194;2022-10-31T00:22:41;11.20;99.90
5476;DHT22;2760;50.000;9.194;2022-10-31T00:25:08;11.20;99.90
5476;DHT22;2760;50.000;9.194;2022-10-31T00:27:36;11.30;99.90
5476;DHT22;2760;50.000;9.194;2022-10-31T00:30:04;11.80;99.90
5476;DHT22;2760;50.000;9.194;2022-10-31T00:32:31;11.40;99.90
5476;DHT22;2760;50.000;9.194;2022-10-31T00:34:58;13.50;99.90
5476;DHT22;2760;50.000;9.194;2022-10-31T00:37:26;13.50;99.90
5476;DHT22;2760;50.000;9.194;2022-10-31T00:39:53;11.40;99.90
5476;DHT22;2760;50.000;9.194;2022-10-31T00:42:20;11.80;99.90
5476;DHT22;2760;50.000;9.194;2022-10-31T00:44:49;12.60;99.90
5476;DHT22;2760;50.000;9.194;2022-10-31T00:47:16;13.10;99.90
5476;DHT22;2760;50.000;9.194;2022-10-31T00:49:44;12.90;99.90
5476;DHT22;2760;50.000;9.194;2022-10-31T00:52:11;11.30;99.90
5476;DHT22;2760;50.000;9.194;2022-10-31T00:54:38;12.80;99.90
5476;DHT22;2760;50.000;9.194;2022-10-31T00:57:05;11.30;99.90
5476;DHT22;2760;50.000;9.194;2022-10-31T00:59:32;13.60;99.90
5476;DHT22;2760;50.000;9.194;2022-10-31T01:02:01;11.60;99.90
5476;DHT22;2760;50.000;9.194;2022-10-31T01:04:28;13.40;99.90
5476;DHT22;2760;50.000;9.194;2022-10-31T01:06:56;12.90;99.90
5476;DHT22;2760;50.000;9.194;2022-10-31T01:09:23;13.50;99.90
5476;DHT22;2760;50.000;9.194;2022-10-31T01:11:50;11.00;99.90
5476;DHT22;2760;50.000;9.194;2022-10-31T01:14:17;12.00;99.90
5476;DHT22;2760;50.000;9.194;2022-10-31T01:16:44;12.40;99.90
5476;DHT22;2760;50.000;9.194;2022-10-31T01:19:15;12.30;99.90
5476;DHT22;2760;50.000;9.194;2022-10-31T01:21:42;10.80;99.90
5476;DHT22;2760;50.000;9.194;2022-10-31T01:24:09;12.40;99.90
5476;DHT22;2760;50.000;9.194;2022-10-31T01:26:38;10.50;99.90
5476;DHT22;2760;50.000;9.194;2022-10-31T01:29:07;10.40;99.90
5476;DHT22;2760;50.000;9.194;2022-10-31T01:31:36;12.70;99.90
5476;DHT22;2760;50.000;9.194;2022-10-31T01:34:04;10.60;99.90
5476;DHT22;2760;50.000;9.194;2022-10-31T01:36:35;12.30;99.90
5476;DHT22;2760;50.000;9.194;2022-10-31T01:39:04;10.60;99.90
5476;DHT22;2760;50.000;9.194;2022-10-31T01:41:34;10.70;99.90
5476;DHT22;2760;50.000;9.194;2022-10-31T01:47:13;10.70;99.90
5476;DHT22;2760;50.000;9.194;2022-10-31T01:49:44;12.40;99.90
5476;DHT22;2760;50.000;9.194;2022-10-31T01:52:19;12.40;99.90
5476;DHT22;2760;50.000;9.194;2022-10-31T01:54:50;10.70;99.90
5476;DHT22;2760;50.000;9.194;2022-10-31T01:57:20;12.60;99.90
5476;DHT22;2760;50.000;9.194;2022-10-31T01:59:54;12.00;99.90
5476;DHT22;2760;50.000;9.194;2022-10-31T02:02:23;12.60;99.90
5476;DHT22;2760;50.000;9.194;2022-10-31T02:04:52;12.50;99.90
5476;DHT22;2760;50.000;9.194;2022-10-31T02:07:25;11.50;99.90
5476;DHT22;2760;50.000;9.194;2022-10-31T02:09:58;10.10;99.90
5476;DHT22;2760;50.000;9.194;2022-10-31T02:12:27;10.00;99.90
5476;DHT22;2760;50.000;9.194;2022-10-31T02:14:58;10.00;99.90
5476;DHT22;2760;50.000;9.194;2022-10-31T02:17:26;10.00;99.90
5476;DHT22;2760;50.000;9.194;2022-10-31T02:19:59;10.10;99.90
5476;DHT22;2760;50.000;9.194;2022-10-31T02:22:36;11.60;99.90
5476;DHT22;2760;50.000;9.194;2022-10-31T02:25:19;10.20;99.90
5476;DHT22;2760;50.000;9.194;2022-10-31T02:28:06;10.50;99.90
5476;DHT22;2760;50.000;9.194;2022-10-31T02:30:54;10.50;99.90
5476;DHT22;2760;50.000;9.194;2022-10-31T02:33:24;12.10;99.90
5476;DHT22;2760;50.000;9.194;2022-10-31T02:36:00;12.60;99.90
5476;DHT22;2760;50.000;9.194;2022-10-31T02:38:39;10.40;99.90
5476;DHT22;2760;50.000;9.194;2022-10-31T02:41:20;12.90;99.90
5476;DHT22;2760;50.000;9.194;2022-10-31T02:44:02;10.30;99.90
5476;DHT22;2760;50.000;9.194;2022-10-31T02:46:35;11.80;99.90
5476;DHT22;2760;50.000;9.194;2022-10-31T02:49:09;12.80;99.90
5476;DHT22;2760;50.000;9.194;2022-10-31T02:51:39;11.40;99.90
5476;DHT22;2760;50.000;9.194;2022-10-31T02:54:17;10.00;99.90
5476;DHT22;2760;50.000;9.194;2022-10-31T02:56:44;11.00;99.90
5476;DHT22;2760;50.000;9.194;2022-10-31T02:59:12;12.00;99.90
5476;DHT22;2760;50.000;9.194;2022-10-31T03:01:58;10.10;99.90
5476;DHT22;2760;50.000;9.194;2022-10-31T03:04:42;10.00;99.90
5476;DHT22;2760;50.000;9.194;2022-10-31T03:07:20;11.30;99.90
5476;DHT22;2760;50.000;9.194;2022-10-31T03:09:53;10.10;99.90
5476;DHT22;2760;50.000;9.194;2022-10-31T03:12:28;8.80;99.90
5476;DHT22;2760;50.000;9.194;2022-10-31T03:15:02;12.20;99.90
5476;DHT22;2760;50.000;9.194;2022-10-31T03:17:36;12.00;99.90
5476;DHT22;2760;50.000;9.194;2022-10-31T03:20:06;11.60;99.90
5476;DHT22;2760;50.000;9.194;2022-10-31T03:22:36;11.20;99.90
5476;DHT22;2760;50.000;9.194;2022-10-31T03:25:05;10.60;99.90
5476;DHT22;2760;50.000;9.194;2022-10-31T03:27:35;10.60;99.90
5476;DHT22;2760;50.000;9.194;2022-10-31T03:30:06;10.80;99.90
5476;DHT22;2760;50.000;9.194;2022-10-31T03:32:49;10.80;99.90
5476;DHT22;2760;50.000;9.194;2022-10-31T03:35:19;12.90;99.90
5476;DHT22;2760;50.000;9.194;2022-10-31T03:37:48;10.60;99.90
5476;DHT22;2760;50.000;9.194;2022-10-31T03:40:18;12.40;99.90
5476;DHT22;2760;50.000;9.194;2022-10-31T03:42:52;11.60;99.90
5476;DHT22;2760;50.000;9.194;2022-10-31T03:45:23;12.00;99.90
5476;DHT22;2760;50.000;9.194;2022-10-31T03:47:53;10.60;99.90
5476;DHT22;2760;50.000;9.194;2022-10-31T03:50:21;10.30;99.90
5476;DHT22;2760;50.000;9.194;2022-10-31T03:52:56;10.20;99.90
5476;DHT22;2760;50.000;9.194;2022-10-31T03:55:30;11.20;99.90
5476;DHT22;2760;50.000;9.194;2022-10-31T03:58:01;10.20;99.90
5476;DHT22;2760;50.000;9.194;2022-10-31T04:00:31;12.60;99.90
5476;DHT22;2760;50.000;9.194;2022-10-31T04:03:05;12.50;99.90
5476;DHT22;2760;50.000;9.194;2022-10-31T04:05:37;11.50;99.90
5476;DHT22;2760;50.000;9.194;2022-10-31T04:08:08;12.50;99.90
5476;DHT22;2760;50.000;9.194;2022-10-31T04:10:37;10.90;99.90
5476;DHT22;2760;50.000;9.194;2022-10-31T04:13:07;11.90;99.90
5476;DHT22;2760;50.000;9.194;2022-10-31T04:15:45;9.20;99.90
5476;DHT22;2760;50.000;9.194;2022-10-31T04:18:15;11.90;99.90
5476;DHT22;2760;50.000;9.194;2022-10-31T04:20:42;12.30;99.90
5476;DHT22;2760;50.000;9.194;2022-10-31T04:23:17;11.60;99.90
5476;DHT22;2760;50.000;9.194;2022-10-31T04:25:45;11.80;99.90
5476;DHT22;2760;50.000;9.194;2022-10-31T04:28:12;12.70;99.90
5476;DHT22;2760;50.000;9.194;2022-10-31T04:30:39;10.40;99.90
5476;DHT22;2760;50.000;9.194;2022-10-31T04:33:06;12.50;99.90
5476;DHT22;2760;50.000;9.194;2022-10-31T04:35:35;10.00;99.90
5476;DHT22;2760;50.000;9.194;2022-10-31T04:38:02;12.30;99.90
5476;DHT22;2760;50.000;9.194;2022-10-31T04:40:30;10.00;99.90
5476;DHT22;2760;50.000;9.194;2022-10-31T04:43:15;10.10;99.90
5476;DHT22;2760;50.000;9.194;2022-10-31T04:45:43;10.40;99.90
5476;DHT22;2760;50.000;9.194;2022-10-31T04:48:12;10.10;99.90
5476;DHT22;2760;50.000;9.194;2022-10-31T04:50:43;8.50;99.90
5476;DHT22;2760;50.000;9.194;2022-10-31T04:53:12;10.40;99.90
5476;DHT22;2760;50.000;9.194;2022-10-31T04:55:59;10.00;99.90
5476;DHT22;2760;50.000;9.194;2022-10-31T04:58:34;10.00;99.90
5476;DHT22;2760;50.000;9.194;2022-10-31T05:01:03;10.00;99.90
5476;DHT22;2760;50.000;9.194;2022-10-31T05:06:04;9.90;99.90
5476;DHT22;2760;50.000;9.194;2022-10-31T05:08:31;9.80;99.90
5476;DHT22;2760;50.000;9.194;2022-10-31T05:11:02;9.70;99.90
5476;DHT22;2760;50.000;9.194;2022-10-31T05:13:29;9.80;99.90
5476;DHT22;2760;50.000;9.194;2022-10-31T05:16:17;9.70;99.90
5476;DHT22;2760;50.000;9.194;2022-10-31T05:19:04;12.20;99.90
5476;DHT22;2760;50.000;9.194;2022-10-31T05:22:04;11.50;99.90
5476;DHT22;2760;50.000;9.194;2022-10-31T05:24:32;7.90;99.90
5476;DHT22;2760;50.000;9.194;2022-10-31T05:26:59;11.80;99.90
5476;DHT22;2760;50.000;9.194;2022-10-31T05:29:26;9.60;99.90
5476;DHT22;2760;50.000;9.194;2022-10-31T05:31:53;9.60;99.90
5476;DHT22;2760;50.000;9.194;2022-10-31T05:34:43;9.70;99.90
5476;DHT22;2760;50.000;9.194;2022-10-31T05:37:31;11.10;99.90
5476;DHT22;2760;50.000;9.194;2022-10-31T05:39:59;11.10;99.90
5476;DHT22;2760;50.000;9.194;2022-10-31T05:42:26;10.60;99.90
5476;DHT22;2760;50.000;9.194;2022-10-31T05:44:54;11.40;99.90
5476;DHT22;2760;50.000;9.194;2022-10-31T05:47:34;10.00;99.90
5476;DHT22;2760;50.000;9.194;2022-10-31T05:50:25;10.00;99.90
5476;DHT22;2760;50.000;9.194;2022-10-31T05:53:05;12.10;99.90
5476;DHT22;2760;50.000;9.194;2022-10-31T05:55:36;10.00;99.90
5476;DHT22;2760;50.000;9.194;2022-10-31T05:58:16;11.20;99.90
5476;DHT22;2760;50.000;9.194;2022-10-31T06:00:50;11.70;99.90
5476;DHT22;2760;50.000;9.194;2022-10-31T06:03:17;9.90;99.90
5476;DHT22;2760;50.000;9.194;2022-10-31T06:05:51;11.40;99.90
5476;DHT22;2760;50.000;9.194;2022-10-31T06:08:20;10.80;99.90
5476;DHT22;2760;50.000;9.194;2022-10-31T06:10:48;9.70;99.90
5476;DHT22;2760;50.000;9.194;2022-10-31T06:13:22;11.60;99.90
5476;DHT22;2760;50.000;9.194;2022-10-31T06:15:58;9.70;99.90
5476;DHT22;2760;50.000;9.194;2022-10-31T06:18:33;9.60;99.90
5476;DHT22;2760;50.000;9.194;2022-10-31T06:21:03;9.60;99.90
5476;DHT22;2760;50.000;9.194;2022-10-31T06:23:31;9.60;99.90
5476;DHT22;2760;50.000;9.194;2022-10-31T06:26:18;10.80;99.90
5476;DHT22;2760;50.000;9.194;2022-10-31T06:28:47;10.50;99.90
5476;DHT22;2760;50.000;9.194;2022-10-31T06:31:33;9.40;99.90
5476;DHT22;2760;50.000;9.194;2022-10-31T06:34:03;8.90;99.90
5476;DHT22;2760;50.000;9.194;2022-10-31T06:36:30;11.40;99.90
5476;DHT22;2760;50.000;9.194;2022-10-31T06:39:00;11.20;99.90
5476;DHT22;2760;50.000;9.194;2022-10-31T06:41:27;9.80;99.90
5476;DHT22;2760;50.000;9.194;2022-10-31T06:43:56;9.90;99.90
5476;DHT22;2760;50.000;9.194;2022-10-31T06:46:37;12.10;99.90
5476;DHT22;2760;50.000;9.194;2022-10-31T06:49:28;10.00;99.90
5476;DHT22;2760;50.000;9.194;2022-10-31T06:51:59;12.00;99.90
5476;DHT22;2760;50.000;9.194;2022-10-31T06:54:28;11.90;99.90
5476;DHT22;2760;50.000;9.194;2022-10-31T06:56:55;12.20;99.90
5476;DHT22;2760;50.000;9.194;2022-10-31T06:59:23;10.30;99.90
5476;DHT22;2760;50.000;9.194;2022-10-31T07:02:11;9.90;99.90
5476;DHT22;2760;50.000;9.194;2022-10-31T07:04:41;10.60;99.90
5476;DHT22;2760;50.000;9.194;2022-10-31T07:07:11;10.10;99.90
5476;DHT22;2760;50.000;9.194;2022-10-31T07:09:40;11.40;99.90
5476;DHT22;2760;50.000;9.194;2022-10-31T07:12:11;10.20;99.90
5476;DHT22;2760;50.000;9.194;2022-10-31T07:14:44;11.90;99.90
5476;DHT22;2760;50.000;9.194;2022-10-31T07:17:12;11.50;99.90
5476;DHT22;2760;50.000;9.194;2022-10-31T07:19:42;11.70;99.90
5476;DHT22;2760;50.000;9.194;2022-10-31T07:22:11;10.30;99.90
5476;DHT22;2760;50.000;9.194;2022-10-31T07:24:41;11.50;99.90
5476;DHT22;2760;50.000;9.194;2022-10-31T07:27:47;12.40;99.90
5476;DHT22;2760;50.000;9.194;2022-10-31T07:30:17;9.10;99.90
5476;DHT22;2760;50.000;9.194;2022-10-31T07:32:47;10.80;99.90
5476;DHT22;2760;50.000;9.194;2022-10-31T07:35:18;11.10;99.90
5476;DHT22;2760;50.000;9.194;2022-10-31T07:37:46;13.10;99.90
5476;DHT22;2760;50.000;9.194;2022-10-31T07:40:17;12.70;99.90
5476;DHT22;2760;50.000;9.194;2022-10-31T07:42:45;11.00;99.90
5476;DHT22;2760;50.000;9.194;2022-10-31T07:45:32;10.70;99.90
5476;DHT22;2760;50.000;9.194;2022-10-31T07:48:18;12.00;99.90
5476;DHT22;2760;50.000;9.194;2022-10-31T07:51:04;11.40;99.90
5476;DHT22;2760;50.000;9.194;2022-10-31T07:53:51;11.60;99.90
5476;DHT22;2760;50.000;9.194;2022-10-31T07:56:29;12.90;99.90
5476;DHT22;2760;50.000;9.194;2022-10-31T07:58:56;12.50;99.90
5476;DHT22;2760;50.000;9.194;2022-10-31T08:01:23;11.90;99.90
5476;DHT22;2760;50.000;9.194;2022-10-31T08:04:10;11.90;99.90
5476;DHT22;2760;50.000;9.194;2022-10-31T08:07:00;14.00;99.90
5476;DHT22;2760;50.000;9.194;2022-10-31T08:09:33;12.20;99.90
5476;DHT22;2760;50.000;9.194;2022-10-31T08:12:06;12.70;99.90
5476;DHT22;2760;50.000;9.194;2022-10-31T08:14:34;12.60;99.90
5476;DHT22;2760;50.000;9.194;2022-10-31T08:17:02;13.00;99.90
5476;DHT22;2760;50.000;9.194;2022-10-31T08:19:39;14.10;99.90
5476;DHT22;2760;50.000;9.194;2022-10-31T08:22:10;13.70;99.90
5476;DHT22;2760;50.000;9.194;2022-10-31T08:24:38;13.40;99.90
5476;DHT22;2760;50.000;9.194;2022-10-31T08:27:06;13.50;99.90
5476;DHT22;2760;50.000;9.194;2022-10-31T08:29:33;13.60;99.90
5476;DHT22;2760;50.000;9.194;2022-10-31T08:32:01;13.70;99.90
5476;DHT22;2760;50.000;9.194;2022-10-31T08:34:46;14.80;99.90
5476;DHT22;2760;50.000;9.194;2022-10-31T08:37:52;14.00;99.90
5476;DHT22;2760;50.000;9.194;2022-10-31T08:40:20;14.20;99.90
5476;DHT22;2760;50.000;9.194;2022-10-31T08:42:55;14.30;99.90
5476;DHT22;2760;50.000;9.194;2022-10-31T08:45:23;14.60;99.90
5476;DHT22;2760;50.000;9.194;2022-10-31T08:47:51;14.80;99.90
5476;DHT22;2760;50.000;9.194;2022-10-31T08:50:18;15.00;99.90
5476;DHT22;2760;50.000;9.194;2022-10-31T08:52:46;14.90;99.90
5476;DHT22;2760;50.000;9.194;2022-10-31T08:55:13;16.70;99.90
5476;DHT22;2760;50.000;9.194;2022-10-31T08:58:01;15.60;99.90
5476;DHT22;2760;50.000;9.194;2022-10-31T09:00:36;16.10;99.90
5476;DHT22;2760;50.000;9.194;2022-10-31T09:03:15;16.10;99.90
5476;DHT22;2760;50.000;9.194;2022-10-31T09:05:42;17.20;99.90
5476;DHT22;2760;50.000;9.194;2022-10-31T09:08:11;16.30;99.90
5476;DHT22;2760;50.000;9.194;2022-10-31T09:10:39;16.40;99.90
5476;DHT22;2760;50.000;9.194;2022-10-31T09:13:12;16.50;99.90
5476;DHT22;2760;50.000;9.194;2022-10-31T09:16:17;15.20;99.90
5476;DHT22;2760;50.000;9.194;2022-10-31T09:18:45;16.90;99.90
5476;DHT22;2760;50.000;9.194;2022-10-31T09:21:15;17.20;99.90
5476;DHT22;2760;50.000;9.194;2022-10-31T09:23:43;18.70;99.90
5476;DHT22;2760;50.000;9.194;2022-10-31T09:26:10;17.80;99.90
5476;DHT22;2760;50.000;9.194;2022-10-31T09:28:46;17.90;99.90
5476;DHT22;2760;50.000;9.194;2022-10-31T09:31:16;18.40;99.90
5476;DHT22;2760;50.000;9.194;2022-10-31T09:34:05;18.40;99.90
5476;DHT22;2760;50.000;9.194;2022-10-31T09:36:35;18.60;99.90
5476;DHT22;2760;50.000;9.194;2022-10-31T09:39:04;18.60;99.90
5476;DHT22;2760;50.000;9.194;2022-10-31T09:41:55;19.40;99.90
5476;DHT22;2760;50.000;9.194;2022-10-31T09:44:33;18.90;99.90
5476;DHT22;2760;50.000;9.194;2022-10-31T09:47:10;19.10;99.90
5476;DHT22;2760;50.000;9.194;2022-10-31T09:50:02;19.50;99.90
5476;DHT22;2760;50.000;9.194;2022-10-31T09:52:34;19.70;99.90
5476;DHT22;2760;50.000;9.194;2022-10-31T09:55:13;19.70;99.90
5476;DHT22;2760;50.000;9.194;2022-10-31T09:57:41;19.90;99.90
5476;DHT22;2760;50.000;9.194;2022-10-31T10:00:16;18.40;99.90
5476;DHT22;2760;50.000;9.194;2022-10-31T10:02:49;19.90;99.90
5476;DHT22;2760;50.000;9.194;2022-10-31T10:05:21;20.10;99.90
5476;DHT22;2760;50.000;9.194;2022-10-31T10:07:55;20.10;99.90
5476;DHT22;2760;50.000;9.194;2022-10-31T10:10:49;20.30;99.90
5476;DHT22;2760;50.000;9.194;2022-10-31T10:13:42;20.40;99.90
5476;DHT22;2760;50.000;9.194;2022-10-31T10:16:30;20.30;99.90
5476;DHT22;2760;50.000;9.194;2022-10-31T10:19:13;20.40;99.90
5476;DHT22;2760;50.000;9.194;2022-10-31T10:21:50;20.00;99.90
5476;DHT22;2760;50.000;9.194;2022-10-31T10:24:27;20.00;99.90
5476;DHT22;2760;50.000;9.194;2022-10-31T10:27:04;19.80;99.90
5476;DHT22;2760;50.000;9.194;2022-10-31T10:29:37;19.60;99.90
5476;DHT22;2760;50.000;9.194;2022-10-31T10:32:11;19.60;99.90
5476;DHT22;2760;50.000;9.194;2022-10-31T10:34:44;19.60;99.90
5476;DHT22;2760;50.000;9.194;2022-10-31T10:37:23;19.50;99.90
5476;DHT22;2760;50.000;9.194;2022-10-31T10:39:54;19.50;99.90
5476;DHT22;2760;50.000;9.194;2022-10-31T10:42:24;19.70;99.90
5476;DHT22;2760;50.000;9.194;2022-10-31T10:45:16;19.70;99.90
5476;DHT22;2760;50.000;9.194;2022-10-31T10:48:06;19.70;99.90
5476;DHT22;2760;50.000;9.194;2022-10-31T10:50:40;19.80;99.90
5476;DHT22;2760;50.000;9.194;2022-10-31T10:53:22;19.90;99.90
5476;DHT22;2760;50.000;9.194;2022-10-31T10:56:02;20.00;99.90
5476;DHT22;2760;50.000;9.194;2022-10-31T10:58:34;19.70;99.90
5476;DHT22;2760;50.000;9.194;2022-10-31T11:01:11;19.50;99.90
5476;DHT22;2760;50.000;9.194;2022-10-31T11:03:40;19.40;99.90
5476;DHT22;2760;50.000;9.194;2022-10-31T11:06:17;19.20;99.90
5476;DHT22;2760;50.000;9.194;2022-10-31T11:08:48;19.30;99.90
5476;DHT22;2760;50.000;9.194;2022-10-31T11:11:23;19.30;99.90
5476;DHT22;2760;50.000;9.194;2022-10-31T11:13:57;19.20;99.90
5476;DHT22;2760;50.000;9.194;2022-10-31T11:16:32;19.20;99.90
5476;DHT22;2760;50.000;9.194;2022-10-31T11:19:13;19.20;99.90
5476;DHT22;2760;50.000;9.194;2022-10-31T11:21:46;19.40;99.90
5476;DHT22;2760;50.000;9.194;2022-10-31T11:24:16;19.60;99.90
5476;DHT22;2760;50.000;9.194;2022-10-31T11:26:44;19.70;99.90
5476;DHT22;2760;50.000;9.194;2022-10-31T11:29:15;19.60;99.90
5476;DHT22;2760;50.000;9.194;2022-10-31T11:31:44;19.40;99.90
5476;DHT22;2760;50.000;9.194;2022-10-31T11:34:19;19.40;99.90
5476;DHT22;2760;50.000;9.194;2022-10-31T11:36:48;18.40;99.90
5476;DHT22;2760;50.000;9.194;2022-10-31T11:39:18;19.40;99.90
5476;DHT22;2760;50.000;9.194;2022-10-31T11:41:47;19.50;99.90
5476;DHT22;2760;50.000;9.194;2022-10-31T11:44:17;19.60;99.90
5476;DHT22;2760;50.000;9.194;2022-10-31T11:46:47;19.60;99.90
5476;DHT22;2760;50.000;9.194;2022-10-31T11:49:18;19.60;99.90
5476;DHT22;2760;50.000;9.194;2022-10-31T11:51:49;19.70;99.90
5476;DHT22;2760;50.000;9.194;2022-10-31T11:54:21;19.60;99.90
5476;DHT22;2760;50.000;9.194;2022-10-31T11:56:50;19.70;99.90
5476;DHT22;2760;50.000;9.194;2022-10-31T11:59:22;19.70;99.90
5476;DHT22;2760;50.000;9.194;2022-10-31T12:01:51;19.70;99.90
5476;DHT22;2760;50.000;9.194;2022-10-31T12:04:27;19.50;99.90
5476;DHT22;2760;50.000;9.194;2022-10-31T12:06:56;18.80;99.90
5476;DHT22;2760;50.000;9.194;2022-10-31T12:09:25;19.50;99.90
5476;DHT22;2760;50.000;9.194;2022-10-31T12:12:11;19.60;99.90
5476;DHT22;2760;50.000;9.194;2022-10-31T12:14:49;19.60;99.90
5476;DHT22;2760;50.000;9.194;2022-10-31T12:17:23;19.60;99.90
5476;DHT22;2760;50.000;9.194;2022-10-31T12:20:00;19.50;99.90
5476;DHT22;2760;50.000;9.194;2022-10-31T12:22:39;19.50;99.90
5476;DHT22;2760;50.000;9.194;2022-10-31T12:25:21;19.50;99.90
5476;DHT22;2760;50.000;9.194;2022-10-31T12:27:59;19.40;99.90
5476;DHT22;2760;50.000;9.194;2022-10-31T12:30:40;19.50;99.90
5476;DHT22;2760;50.000;9.194;2022-10-31T12:33:27;19.60;99.90
5476;DHT22;2760;50.000;9.194;2022-10-31T12:36:14;19.70;99.90
5476;DHT22;2760;50.000;9.194;2022-10-31T12:38:55;19.60;99.90
5476;DHT22;2760;50.000;9.194;2022-10-31T12:41:40;19.80;99.90
5476;DHT22;2760;50.000;9.194;2022-10-31T12:44:28;19.80;99.90
5476;DHT22;2760;50.000;9.194;2022-10-31T12:47:09;19.90;99.90
5476;DHT22;2760;50.000;9.194;2022-10-31T12:49:45;19.90;99.90
5476;DHT22;2760;50.000;9.194;2022-10-31T12:52:28;19.80;99.90
5476;DHT22;2760;50.000;9.194;2022-10-31T12:55:10;19.90;99.90
5476;DHT22;2760;50.000;9.194;2022-10-31T12:57:44;20.00;99.90
5476;DHT22;2760;50.000;9.194;2022-10-31T13:00:14;19.90;99.90
5476;DHT22;2760;50.000;9.194;2022-10-31T13:02:47;19.90;99.90
5476;DHT22;2760;50.000;9.194;2022-10-31T13:05:19;19.90;99.90
5476;DHT22;2760;50.000;9.194;2022-10-31T13:07:55;19.90;99.90
5476;DHT22;2760;50.000;9.194;2022-10-31T13:10:27;19.60;99.90
5476;DHT22;2760;50.000;9.194;2022-10-31T13:13:02;19.50;99.90
5476;DHT22;2760;50.000;9.194;2022-10-31T13:15:45;19.70;99.90
5476;DHT22;2760;50.000;9.194;2022-10-31T13:18:25;19.70;99.90
5476;DHT22;2760;50.000;9.194;2022-10-31T13:20:55;19.50;99.90
5476;DHT22;2760;50.000;9.194;2022-10-31T13:23:30;19.60;99.90
5476;DHT22;2760;50.000;9.194;2022-10-31T13:26:05;19.60;99.90
5476;DHT22;2760;50.000;9.194;2022-10-31T13:28:36;20.30;99.90
5476;DHT22;2760;50.000;9.194;2022-10-31T13:31:04;20.10;99.90
5476;DHT22;2760;50.000;9.194;2022-10-31T13:33:34;19.90;99.90
5476;DHT22;2760;50.000;9.194;2022-10-31T13:36:12;19.70;99.90
5476;DHT22;2760;50.000;9.194;2022-10-31T13:38:49;19.80;99.90
5476;DHT22;2760;50.000;9.194;2022-10-31T13:41:27;19.60;99.90
5476;DHT22;2760;50.000;9.194;2022-10-31T13:44:01;19.60;99.90
5476;DHT22;2760;50.000;9.194;2022-10-31T13:46:36;19.50;99.90
5476;DHT22;2760;50.000;9.194;2022-10-31T13:49:03;19.50;99.90
5476;DHT22;2760;50.000;9.194;2022-10-31T13:51:31;19.50;99.90
5476;DHT22;2760;50.000;9.194;2022-10-31T13:54:06;17.70;99.90
5476;DHT22;2760;50.000;9.194;2022-10-31T13:56:48;19.30;99.90
5476;DHT22;2760;50.000;9.194;2022-10-31T13:59:18;19.40;99.90
5476;DHT22;2760;50.000;9.194;2022-10-31T14:01:53;19.30;99.90
5476;DHT22;2760;50.000;9.194;2022-10-31T14:04:23;19.30;99.90
5476;DHT22;2760;50.000;9.194;2022-10-31T14:06:57;19.30;99.90
5476;DHT22;2760;50.000;9.194;2022-10-31T14:09:30;19.30;99.90
5476;DHT22;2760;50.000;9.194;2022-10-31T14:12:02;19.20;99.90
5476;DHT22;2760;50.000;9.194;2022-10-31T14:14:35;19.10;99.90
5476;DHT22;2760;50.000;9.194;2022-10-31T14:17:03;19.00;99.90
5476;DHT22;2760;50.000;9.194;2022-10-31T14:19:30;19.00;99.90
5476;DHT22;2760;50.000;9.194;2022-10-31T14:21:57;19.10;99.90
5476;DHT22;2760;50.000;9.194;2022-10-31T14:24:35;19.00;99.90
5476;DHT22;2760;50.000;9.194;2022-10-31T14:27:04;19.10;99.90
5476;DHT22;2760;50.000;9.194;2022-10-31T14:29:51;19.10;99.90
5476;DHT22;2760;50.000;9.194;2022-10-31T14:32:21;19.00;99.90
5476;DHT22;2760;50.000;9.194;2022-10-31T14:34:55;19.20;99.90
5476;DHT22;2760;50.000;9.194;2022-10-31T14:37:40;18.20;99.90
5476;DHT22;2760;50.000;9.194;2022-10-31T14:40:24;18.70;99.90
5476;DHT22;2760;50.000;9.194;2022-10-31T14:43:27;18.70;99.90
5476;DHT22;2760;50.000;9.194;2022-10-31T14:46:01;18.60;99.90
5476;DHT22;2760;50.000;9.194;2022-10-31T14:48:45;18.70;99.90
5476;DHT22;2760;50.000;9.194;2022-10-31T14:51:17;18.70;99.90
5476;DHT22;2760;50.000;9.194;2022-10-31T14:53:47;18.90;99.90
5476;DHT22;2760;50.000;9.194;2022-10-31T14:56:22;17.30;99.90
5476;DHT22;2760;50.000;9.194;2022-10-31T14:58:55;18.80;99.90
5476;DHT22;2760;50.000;9.194;2022-10-31T15:01:25;18.80;99.90
5476;DHT22;2760;50.000;9.194;2022-10-31T15:04:00;19.20;99.90
5476;DHT22;2760;50.000;9.194;2022-10-31T15:06:31;18.80;99.90
5476;DHT22;2760;50.000;9.194;2022-10-31T15:09:04;18.70;99.90
5476;DHT22;2760;50.000;9.194;2022-10-31T15:11:37;18.70;99.90
5476;DHT22;2760;50.000;9.194;2022-10-31T15:14:21;18.70;99.90
5476;DHT22;2760;50.000;9.194;2022-10-31T15:16:48;18.70;99.90
5476;DHT22;2760;50.000;9.194;2022-10-31T15:19:21;18.80;99.90
5476;DHT22;2760;50.000;9.194;2022-10-31T15:21:51;19.00;99.90
5476;DHT22;2760;50.000;9.194;2022-10-31T15:24:19;18.80;99.90
5476;DHT22;2760;50.000;9.194;2022-10-31T15:26:50;18.80;99.90
5476;DHT22;2760;50.000;9.194;2022-10-31T15:29:19;18.50;99.90
5476;DHT22;2760;50.000;9.194;2022-10-31T15:31:52;18.40;99.90
5476;DHT22;2760;50.000;9.194;2022-10-31T15:34:22;18.50;99.90
5476;DHT22;2760;50.000;9.194;2022-10-31T15:36:53;18.40;99.90
5476;DHT22;2760;50.000;9.194;2022-10-31T15:39:20;18.40;99.90
5476;DHT22;2760;50.000;9.194;2022-10-31T15:41:54;18.30;99.90
5476;DHT22;2760;50.000;9.194;2022-10-31T15:44:24;18.10;99.90
5476;DHT22;2760;50.000;9.194;2022-10-31T15:46:54;18.10;99.90
5476;DHT22;2760;50.000;9.194;2022-10-31T15:49:35;18.00;99.90
5476;DHT22;2760;50.000;9.194;2022-10-31T15:52:11;17.90;99.90
5476;DHT22;2760;50.000;9.194;2022-10-31T15:54:46;17.90;99.90
5476;DHT22;2760;50.000;9.194;2022-10-31T15:57:17;17.80;99.90
5476;DHT22;2760;50.000;9.194;2022-10-31T15:59:47;17.70;99.90
5476;DHT22;2760;50.000;9.194;2022-10-31T16:02:18;17.80;99.90
5476;DHT22;2760;50.000;9.194;2022-10-31T16:04:50;17.50;99.90
5476;DHT22;2760;50.000;9.194;2022-10-31T16:07:19;17.40;99.90
5476;DHT22;2760;50.000;9.194;2022-10-31T16:09:51;17.10;99.90
5476;DHT22;2760;50.000;9.194;2022-10-31T16:12:20;17.00;99.90
5476;DHT22;2760;50.000;9.194;2022-10-31T16:14:48;17.00;99.90
5476;DHT22;2760;50.000;9.194;2022-10-31T16:17:18;18.50;99.90
5476;DHT22;2760;50.000;9.194;2022-10-31T16:19:50;15.60;99.90
5476;DHT22;2760;50.000;9.194;2022-10-31T16:22:24;18.30;99.90
5476;DHT22;2760;50.000;9.194;2022-10-31T16:24:55;16.60;99.90
5476;DHT22;2760;50.000;9.194;2022-10-31T16:27:25;16.60;99.90
5476;DHT22;2760;50.000;9.194;2022-10-31T16:29:55;16.50;99.90
5476;DHT22;2760;50.000;9.194;2022-10-31T16:32:32;16.40;99.90
5476;DHT22;2760;50.000;9.194;2022-10-31T16:35:22;16.40;99.90
5476;DHT22;2760;50.000;9.194;2022-10-31T16:37:50;16.30;99.90
5476;DHT22;2760;50.000;9.194;2022-10-31T16:40:17;16.30;99.90
5476;DHT22;2760;50.000;9.194;2022-10-31T16:42:47;16.40;99.90
5476;DHT22;2760;50.000;9.194;2022-10-31T16:45:17;16.20;99.90
5476;DHT22;2760;50.000;9.194;2022-10-31T16:47:45;16.30;99.90